sensor_id;sensor_type;location;lat;lon;timestamp;pressure;altitude;pressure_sealevel;temperature;humidity
28267;BME280;15525;45.568;5.448;2022-09-30T00:00:41;97071.53;;;12.99;58.75
28267;BME280;15525;45.568;5.448;2022-09-30T00:03:07;97076.66;;;13.09;58.59
28267;BME280;15525;45.568;5.448;2022-09-30T00:05:32;97082.00;;;13.09;58.41
28267;BME280;15525;45.568;5.448;2022-09-30T00:07:58;97075.19;;;13.03;58.29
28267;BME280;15525;45.568;5.448;2022-09-30T00:10:23;97045.78;;;12.76;58.16
28267;BME280;15525;45.568;5.448;2022-09-30T00:12:50;97079.41;;;12.96;58.24
28267;BME280;15525;45.568;5.448;2022-09-30T00:15:16;97083.00;;;12.91;58.34
28267;BME280;15525;45.568;5.448;2022-09-30T00:17:42;97083.00;;;12.91;58.75
28267;BME280;15525;45.568;5.448;2022-09-30T00:20:07;97087.09;;;12.89;58.23
28267;BME280;15525;45.568;5.448;2022-09-30T00:22:33;97099.88;;;12.83;58.54
28267;BME280;15525;45.568;5.448;2022-09-30T00:24:59;97092.41;;;12.80;58.28
28267;BME280;15525;45.568;5.448;2022-09-30T00:27:24;97086.88;;;12.77;58.54
28267;BME280;15525;45.568;5.448;2022-09-30T00:29:49;97070.19;;;12.66;58.08
28267;BME280;15525;45.568;5.448;2022-09-30T00:32:15;97089.56;;;12.77;58.27
28267;BME280;15525;45.568;5.448;2022-09-30T00:34:40;97095.69;;;12.77;58.48
28267;BME280;15525;45.568;5.448;2022-09-30T00:37:06;97089.84;;;12.75;58.23
28267;BME280;15525;45.568;5.448;2022-09-30T00:39:33;97101.31;;;12.67;58.36
28267;BME280;15525;45.568;5.448;2022-09-30T00:42:03;97110.91;;;12.60;58.88
28267;BME280;15525;45.568;5.448;2022-09-30T00:44:50;97116.06;;;12.78;59.06
28267;BME280;15525;45.568;5.448;2022-09-30T00:50:08;97126.81;;;12.78;59.16
28267;BME280;15525;45.568;5.448;2022-09-30T00:52:35;97122.50;;;12.91;58.67
28267;BME280;15525;45.568;5.448;2022-09-30T00:55:03;97122.56;;;12.99;58.72
28267;BME280;15525;45.568;5.448;2022-09-30T00:57:30;97114.38;;;13.04;58.78
28267;BME280;15525;45.568;5.448;2022-09-30T00:59:55;97119.94;;;13.08;58.67
28267;BME280;15525;45.568;5.448;2022-09-30T01:02:21;97120.72;;;13.08;58.47
28267;BME280;15525;45.568;5.448;2022-09-30T01:04:48;97122.38;;;13.18;58.53
28267;BME280;15525;45.568;5.448;2022-09-30T01:07:13;97129.03;;;13.20;58.46
28267;BME280;15525;45.568;5.448;2022-09-30T01:09:40;97120.63;;;13.22;58.47
28267;BME280;15525;45.568;5.448;2022-09-30T01:12:15;97115.16;;;13.27;58.77
28267;BME280;15525;45.568;5.448;2022-09-30T01:14:43;97118.09;;;13.17;59.07
28267;BME280;15525;45.568;5.448;2022-09-30T01:17:17;97113.63;;;13.04;59.27
28267;BME280;15525;45.568;5.448;2022-09-30T01:22:48;97123.41;;;13.30;58.99
28267;BME280;15525;45.568;5.448;2022-09-30T01:44:14;97119.81;;;13.43;59.56
28267;BME280;15525;45.568;5.448;2022-09-30T01:46:51;97127.59;;;13.45;59.71
28267;BME280;15525;45.568;5.448;2022-09-30T01:49:29;97123.59;;;13.42;59.70
28267;BME280;15525;45.568;5.448;2022-09-30T01:54:51;97116.03;;;13.44;59.92
28267;BME280;15525;45.568;5.448;2022-09-30T01:57:26;97123.47;;;13.47;59.88
28267;BME280;15525;45.568;5.448;2022-09-30T02:02:25;97121.97;;;13.33;60.14
28267;BME280;15525;45.568;5.448;2022-09-30T02:04:54;97130.88;;;13.42;60.26
28267;BME280;15525;45.568;5.448;2022-09-30T02:07:38;97131.56;;;13.56;60.87
28267;BME280;15525;45.568;5.448;2022-09-30T02:10:11;97139.66;;;13.64;60.03
28267;BME280;15525;45.568;5.448;2022-09-30T02:12:40;97127.72;;;13.87;60.05
28267;BME280;15525;45.568;5.448;2022-09-30T02:15:12;97130.22;;;13.75;59.50
28267;BME280;15525;45.568;5.448;2022-09-30T02:17:45;97129.44;;;13.75;59.77
28267;BME280;15525;45.568;5.448;2022-09-30T02:20:23;97131.47;;;13.69;60.12
28267;BME280;15525;45.568;5.448;2022-09-30T02:23:01;97138.00;;;13.77;60.16
28267;BME280;15525;45.568;5.448;2022-09-30T02:25:33;97137.84;;;13.82;59.84
28267;BME280;15525;45.568;5.448;2022-09-30T02:30:49;97133.72;;;13.45;60.25
28267;BME280;15525;45.568;5.448;2022-09-30T02:33:21;97125.34;;;12.94;61.68
28267;BME280;15525;45.568;5.448;2022-09-30T02:35:53;97112.34;;;12.66;61.97
28267;BME280;15525;45.568;5.448;2022-09-30T02:38:29;97125.53;;;12.76;62.44
28267;BME280;15525;45.568;5.448;2022-09-30T02:41:00;97122.09;;;12.62;62.71
28267;BME280;15525;45.568;5.448;2022-09-30T02:43:31;97116.31;;;12.90;62.33
28267;BME280;15525;45.568;5.448;2022-09-30T02:46:33;97135.88;;;13.04;62.42
28267;BME280;15525;45.568;5.448;2022-09-30T02:52:30;97129.25;;;13.10;61.62
28267;BME280;15525;45.568;5.448;2022-09-30T02:55:13;97120.31;;;13.15;61.80
28267;BME280;15525;45.568;5.448;2022-09-30T02:57:58;97126.38;;;13.29;61.31
28267;BME280;15525;45.568;5.448;2022-09-30T03:00:25;97113.69;;;13.21;61.57
28267;BME280;15525;45.568;5.448;2022-09-30T03:02:58;97123.13;;;13.40;61.76
28267;BME280;15525;45.568;5.448;2022-09-30T03:05:26;97119.53;;;13.45;61.35
28267;BME280;15525;45.568;5.448;2022-09-30T03:07:52;97117.16;;;13.52;60.93
28267;BME280;15525;45.568;5.448;2022-09-30T03:10:18;97079.94;;;13.37;61.23
28267;BME280;15525;45.568;5.448;2022-09-30T03:21:02;97123.25;;;13.74;61.58
28267;BME280;15525;45.568;5.448;2022-09-30T03:34:32;97122.75;;;13.33;61.79
28267;BME280;15525;45.568;5.448;2022-09-30T03:42:18;97132.56;;;12.85;62.90
28267;BME280;15525;45.568;5.448;2022-09-30T03:47:30;97148.53;;;13.04;62.80
28267;BME280;15525;45.568;5.448;2022-09-30T03:50:00;97148.63;;;12.99;63.00
28267;BME280;15525;45.568;5.448;2022-09-30T03:52:30;97147.16;;;13.15;62.66
28267;BME280;15525;45.568;5.448;2022-09-30T03:54:59;97143.94;;;13.04;62.73
28267;BME280;15525;45.568;5.448;2022-09-30T03:57:26;97159.47;;;12.94;63.15
28267;BME280;15525;45.568;5.448;2022-09-30T03:59:57;97145.84;;;13.04;63.04
28267;BME280;15525;45.568;5.448;2022-09-30T04:02:24;97163.88;;;13.12;63.07
28267;BME280;15525;45.568;5.448;2022-09-30T04:04:49;97172.38;;;13.05;63.10
28267;BME280;15525;45.568;5.448;2022-09-30T04:07:15;97167.53;;;12.94;63.17
28267;BME280;15525;45.568;5.448;2022-09-30T04:09:40;97171.31;;;13.06;63.31
28267;BME280;15525;45.568;5.448;2022-09-30T04:12:06;97169.00;;;13.22;62.75
28267;BME280;15525;45.568;5.448;2022-09-30T04:14:32;97174.06;;;13.23;62.70
28267;BME280;15525;45.568;5.448;2022-09-30T04:16:59;97189.97;;;13.11;62.89
28267;BME280;15525;45.568;5.448;2022-09-30T04:19:24;97199.38;;;13.00;63.40
28267;BME280;15525;45.568;5.448;2022-09-30T04:21:51;97204.31;;;13.07;63.28
28267;BME280;15525;45.568;5.448;2022-09-30T04:24:17;97203.88;;;13.13;63.18
28267;BME280;15525;45.568;5.448;2022-09-30T04:26:43;97195.53;;;13.15;63.07
28267;BME280;15525;45.568;5.448;2022-09-30T04:29:08;97196.50;;;13.19;62.88
28267;BME280;15525;45.568;5.448;2022-09-30T04:31:34;97204.34;;;12.93;63.51
28267;BME280;15525;45.568;5.448;2022-09-30T04:33:59;97211.69;;;13.01;63.52
28267;BME280;15525;45.568;5.448;2022-09-30T04:36:25;97205.84;;;12.99;63.26
28267;BME280;15525;45.568;5.448;2022-09-30T04:38:50;97198.75;;;13.03;63.29
28267;BME280;15525;45.568;5.448;2022-09-30T04:41:17;97204.13;;;13.03;63.35
28267;BME280;15525;45.568;5.448;2022-09-30T04:43:44;97208.59;;;13.08;63.34
28267;BME280;15525;45.568;5.448;2022-09-30T04:46:14;97203.97;;;13.00;63.42
28267;BME280;15525;45.568;5.448;2022-09-30T04:48:40;97218.19;;;13.22;62.95
28267;BME280;15525;45.568;5.448;2022-09-30T04:51:19;97208.84;;;13.20;63.46
28267;BME280;15525;45.568;5.448;2022-09-30T04:53:46;97226.25;;;13.22;62.98
28267;BME280;15525;45.568;5.448;2022-09-30T04:56:12;97225.56;;;13.39;62.93
28267;BME280;15525;45.568;5.448;2022-09-30T04:58:38;97207.59;;;13.26;62.74
28267;BME280;15525;45.568;5.448;2022-09-30T05:01:06;97232.22;;;13.41;62.63
28267;BME280;15525;45.568;5.448;2022-09-30T05:03:32;97237.00;;;13.44;62.27
28267;BME280;15525;45.568;5.448;2022-09-30T05:05:58;97222.88;;;13.39;62.54
28267;BME280;15525;45.568;5.448;2022-09-30T05:08:24;97218.22;;;13.53;62.93
28267;BME280;15525;45.568;5.448;2022-09-30T05:10:57;97216.91;;;13.42;62.69
28267;BME280;15525;45.568;5.448;2022-09-30T05:13:24;97222.69;;;13.13;63.39
28267;BME280;15525;45.568;5.448;2022-09-30T05:15:50;97228.66;;;13.10;63.52
28267;BME280;15525;45.568;5.448;2022-09-30T05:18:17;97205.94;;;12.94;63.50
28267;BME280;15525;45.568;5.448;2022-09-30T05:20:42;97232.78;;;12.94;63.88
28267;BME280;15525;45.568;5.448;2022-09-30T05:23:07;97235.13;;;12.74;64.30
28267;BME280;15525;45.568;5.448;2022-09-30T05:25:34;97240.03;;;12.72;64.27
28267;BME280;15525;45.568;5.448;2022-09-30T05:27:59;97247.56;;;12.83;63.89
28267;BME280;15525;45.568;5.448;2022-09-30T05:30:25;97249.22;;;13.06;63.84
28267;BME280;15525;45.568;5.448;2022-09-30T05:32:50;97235.97;;;13.10;63.21
28267;BME280;15525;45.568;5.448;2022-09-30T05:35:15;97258.91;;;13.16;63.28
28267;BME280;15525;45.568;5.448;2022-09-30T05:37:41;97253.53;;;13.16;63.30
28267;BME280;15525;45.568;5.448;2022-09-30T05:40:07;97252.13;;;13.18;63.04
28267;BME280;15525;45.568;5.448;2022-09-30T05:42:33;97259.34;;;13.31;63.00
28267;BME280;15525;45.568;5.448;2022-09-30T05:45:02;97258.13;;;13.37;62.82
28267;BME280;15525;45.568;5.448;2022-09-30T05:47:28;97273.91;;;13.52;62.62
28267;BME280;15525;45.568;5.448;2022-09-30T05:49:53;97268.75;;;13.20;62.80
28267;BME280;15525;45.568;5.448;2022-09-30T05:52:19;97280.28;;;13.21;62.79
28267;BME280;15525;45.568;5.448;2022-09-30T05:54:44;97277.31;;;13.22;62.92
28267;BME280;15525;45.568;5.448;2022-09-30T05:57:10;97284.56;;;13.00;62.80
28267;BME280;15525;45.568;5.448;2022-09-30T05:59:35;97285.16;;;12.97;63.28
28267;BME280;15525;45.568;5.448;2022-09-30T06:02:02;97290.31;;;12.93;63.04
28267;BME280;15525;45.568;5.448;2022-09-30T06:04:28;97279.34;;;13.03;63.25
28267;BME280;15525;45.568;5.448;2022-09-30T06:06:53;97293.19;;;12.97;62.83
28267;BME280;15525;45.568;5.448;2022-09-30T06:09:18;97277.59;;;12.85;63.04
28267;BME280;15525;45.568;5.448;2022-09-30T06:11:44;97284.66;;;12.81;63.23
28267;BME280;15525;45.568;5.448;2022-09-30T06:14:09;97283.53;;;12.82;63.48
28267;BME280;15525;45.568;5.448;2022-09-30T06:16:35;97301.28;;;12.83;63.09
28267;BME280;15525;45.568;5.448;2022-09-30T06:19:00;97302.22;;;12.87;63.41
28267;BME280;15525;45.568;5.448;2022-09-30T06:21:26;97303.03;;;13.01;63.04
28267;BME280;15525;45.568;5.448;2022-09-30T06:23:53;97313.97;;;13.05;63.07
28267;BME280;15525;45.568;5.448;2022-09-30T06:26:18;97315.38;;;13.02;63.16
28267;BME280;15525;45.568;5.448;2022-09-30T06:28:44;97306.13;;;12.95;63.07
28267;BME280;15525;45.568;5.448;2022-09-30T06:31:10;97312.28;;;13.09;63.09
28267;BME280;15525;45.568;5.448;2022-09-30T06:33:36;97330.28;;;13.08;62.98
28267;BME280;15525;45.568;5.448;2022-09-30T06:36:02;97313.38;;;12.94;63.49
28267;BME280;15525;45.568;5.448;2022-09-30T06:38:32;97326.25;;;12.97;63.71
28267;BME280;15525;45.568;5.448;2022-09-30T06:41:02;97328.91;;;12.84;63.84
28267;BME280;15525;45.568;5.448;2022-09-30T06:43:28;97307.22;;;12.80;63.62
28267;BME280;15525;45.568;5.448;2022-09-30T06:45:53;97328.31;;;13.00;63.40
28267;BME280;15525;45.568;5.448;2022-09-30T06:48:19;97337.63;;;13.16;63.24
28267;BME280;15525;45.568;5.448;2022-09-30T06:50:44;97336.19;;;13.32;62.50
28267;BME280;15525;45.568;5.448;2022-09-30T06:53:11;97334.78;;;13.35;62.59
28267;BME280;15525;45.568;5.448;2022-09-30T06:55:37;97325.50;;;13.05;62.95
28267;BME280;15525;45.568;5.448;2022-09-30T06:58:07;97335.38;;;13.10;63.00
28267;BME280;15525;45.568;5.448;2022-09-30T07:00:36;97330.47;;;13.12;62.50
28267;BME280;15525;45.568;5.448;2022-09-30T07:03:02;97349.38;;;13.20;62.59
28267;BME280;15525;45.568;5.448;2022-09-30T07:05:30;97354.97;;;13.46;61.94
28267;BME280;15525;45.568;5.448;2022-09-30T07:07:55;97359.44;;;13.72;61.64
28267;BME280;15525;45.568;5.448;2022-09-30T07:10:21;97325.84;;;13.61;60.96
28267;BME280;15525;45.568;5.448;2022-09-30T07:12:52;97337.38;;;13.84;60.80
28267;BME280;15525;45.568;5.448;2022-09-30T07:15:19;97361.47;;;13.89;61.01
28267;BME280;15525;45.568;5.448;2022-09-30T07:17:52;97363.72;;;13.95;60.94
28267;BME280;15525;45.568;5.448;2022-09-30T07:20:17;97355.66;;;13.95;60.87
28267;BME280;15525;45.568;5.448;2022-09-30T07:22:43;97358.50;;;14.21;60.52
28267;BME280;15525;45.568;5.448;2022-09-30T07:25:09;97370.56;;;14.23;60.28
28267;BME280;15525;45.568;5.448;2022-09-30T07:27:35;97371.31;;;13.93;60.51
28267;BME280;15525;45.568;5.448;2022-09-30T07:30:02;97380.53;;;14.01;60.57
28267;BME280;15525;45.568;5.448;2022-09-30T07:32:27;97381.53;;;14.05;60.85
28267;BME280;15525;45.568;5.448;2022-09-30T07:34:53;97363.31;;;14.10;59.98
28267;BME280;15525;45.568;5.448;2022-09-30T07:37:18;97379.13;;;14.03;60.39
28267;BME280;15525;45.568;5.448;2022-09-30T07:39:45;97386.78;;;14.10;60.16
28267;BME280;15525;45.568;5.448;2022-09-30T07:42:13;97371.47;;;14.19;60.40
28267;BME280;15525;45.568;5.448;2022-09-30T07:44:39;97402.63;;;14.11;60.57
28267;BME280;15525;45.568;5.448;2022-09-30T07:47:09;97400.09;;;14.37;60.65
28267;BME280;15525;45.568;5.448;2022-09-30T07:49:35;97422.88;;;14.09;60.80
28267;BME280;15525;45.568;5.448;2022-09-30T07:52:00;97430.72;;;14.05;60.79
28267;BME280;15525;45.568;5.448;2022-09-30T07:54:28;97432.25;;;13.76;61.51
28267;BME280;15525;45.568;5.448;2022-09-30T07:56:55;97419.31;;;13.64;61.48
28267;BME280;15525;45.568;5.448;2022-09-30T07:59:21;97445.41;;;13.99;61.29
28267;BME280;15525;45.568;5.448;2022-09-30T08:01:47;97435.63;;;14.03;60.71
28267;BME280;15525;45.568;5.448;2022-09-30T08:04:15;97463.97;;;13.87;60.95
28267;BME280;15525;45.568;5.448;2022-09-30T08:06:47;97440.59;;;13.52;61.23
28267;BME280;15525;45.568;5.448;2022-09-30T08:09:15;97461.25;;;14.01;60.79
28267;BME280;15525;45.568;5.448;2022-09-30T08:11:41;97457.00;;;14.00;60.43
28267;BME280;15525;45.568;5.448;2022-09-30T08:14:11;97458.34;;;13.75;61.11
28267;BME280;15525;45.568;5.448;2022-09-30T08:16:37;97463.69;;;13.89;60.75
28267;BME280;15525;45.568;5.448;2022-09-30T08:19:03;97455.34;;;13.41;61.36
28267;BME280;15525;45.568;5.448;2022-09-30T08:21:29;97492.47;;;13.39;61.67
28267;BME280;15525;45.568;5.448;2022-09-30T08:23:55;97496.84;;;13.49;61.46
28267;BME280;15525;45.568;5.448;2022-09-30T08:26:20;97486.31;;;13.52;61.10
28267;BME280;15525;45.568;5.448;2022-09-30T08:28:46;97478.81;;;13.49;61.09
28267;BME280;15525;45.568;5.448;2022-09-30T08:31:17;97502.72;;;14.00;60.45
28267;BME280;15525;45.568;5.448;2022-09-30T08:33:43;97500.69;;;14.05;60.31
28267;BME280;15525;45.568;5.448;2022-09-30T08:36:12;97501.16;;;13.85;61.04
28267;BME280;15525;45.568;5.448;2022-09-30T08:38:38;97503.50;;;14.00;60.79
28267;BME280;15525;45.568;5.448;2022-09-30T08:41:48;97509.56;;;14.41;59.45
28267;BME280;15525;45.568;5.448;2022-09-30T08:44:40;97509.75;;;14.09;60.61
28267;BME280;15525;45.568;5.448;2022-09-30T08:50:09;97525.84;;;14.01;60.92
28267;BME280;15525;45.568;5.448;2022-09-30T08:52:42;97507.13;;;13.96;60.38
28267;BME280;15525;45.568;5.448;2022-09-30T08:55:20;97530.78;;;14.21;60.24
28267;BME280;15525;45.568;5.448;2022-09-30T08:57:47;97543.66;;;14.46;59.79
28267;BME280;15525;45.568;5.448;2022-09-30T09:00:15;97508.28;;;14.03;60.35
28267;BME280;15525;45.568;5.448;2022-09-30T09:02:57;97536.38;;;14.46;60.17
28267;BME280;15525;45.568;5.448;2022-09-30T09:16:31;97536.63;;;14.58;59.93
28267;BME280;15525;45.568;5.448;2022-09-30T09:19:09;97557.91;;;14.68;59.36
28267;BME280;15525;45.568;5.448;2022-09-30T09:24:18;97558.72;;;14.69;59.74
28267;BME280;15525;45.568;5.448;2022-09-30T09:26:45;97583.44;;;14.71;59.45
28267;BME280;15525;45.568;5.448;2022-09-30T09:29:21;97580.78;;;14.79;59.76
28267;BME280;15525;45.568;5.448;2022-09-30T09:31:50;97578.03;;;14.93;59.34
28267;BME280;15525;45.568;5.448;2022-09-30T09:34:15;97558.75;;;14.99;58.72
28267;BME280;15525;45.568;5.448;2022-09-30T09:42:25;97580.78;;;14.79;59.42
28267;BME280;15525;45.568;5.448;2022-09-30T09:47:24;97585.34;;;14.48;59.98
28267;BME280;15525;45.568;5.448;2022-09-30T09:49:53;97596.28;;;14.52;60.00
28267;BME280;15525;45.568;5.448;2022-09-30T09:54:57;97579.88;;;14.84;58.43
28267;BME280;15525;45.568;5.448;2022-09-30T09:57:25;97568.38;;;14.92;58.59
28267;BME280;15525;45.568;5.448;2022-09-30T10:00:09;97575.09;;;15.33;57.90
28267;BME280;15525;45.568;5.448;2022-09-30T10:03:05;97585.97;;;15.50;57.91
28267;BME280;15525;45.568;5.448;2022-09-30T10:05:34;97582.28;;;15.85;56.93
28267;BME280;15525;45.568;5.448;2022-09-30T10:08:21;97580.66;;;16.40;56.65
28267;BME280;15525;45.568;5.448;2022-09-30T10:13:21;97608.03;;;15.91;56.74
28267;BME280;15525;45.568;5.448;2022-09-30T10:15:49;97606.34;;;16.12;56.80
28267;BME280;15525;45.568;5.448;2022-09-30T10:18:19;97586.44;;;16.00;56.86
28267;BME280;15525;45.568;5.448;2022-09-30T10:20:50;97591.31;;;15.89;56.88
28267;BME280;15525;45.568;5.448;2022-09-30T10:23:28;97609.38;;;15.72;57.69
28267;BME280;15525;45.568;5.448;2022-09-30T10:25:55;97606.53;;;15.68;57.75
28267;BME280;15525;45.568;5.448;2022-09-30T10:28:25;97608.94;;;15.78;57.82
28267;BME280;15525;45.568;5.448;2022-09-30T10:30:56;97602.28;;;15.84;56.82
28267;BME280;15525;45.568;5.448;2022-09-30T10:33:25;97594.22;;;15.93;57.03
28267;BME280;15525;45.568;5.448;2022-09-30T10:35:55;97592.34;;;16.02;56.76
28267;BME280;15525;45.568;5.448;2022-09-30T10:38:23;97596.00;;;16.14;56.79
28267;BME280;15525;45.568;5.448;2022-09-30T10:40:49;97600.00;;;16.34;55.81
28267;BME280;15525;45.568;5.448;2022-09-30T10:43:33;97614.25;;;16.00;55.64
28267;BME280;15525;45.568;5.448;2022-09-30T10:46:02;97612.81;;;16.03;56.07
28267;BME280;15525;45.568;5.448;2022-09-30T10:48:32;97605.34;;;16.00;56.33
28267;BME280;15525;45.568;5.448;2022-09-30T10:50:59;97619.88;;;15.82;56.24
28267;BME280;15525;45.568;5.448;2022-09-30T10:53:33;97616.03;;;15.66;56.45
28267;BME280;15525;45.568;5.448;2022-09-30T10:56:00;97618.88;;;15.30;56.75
28267;BME280;15525;45.568;5.448;2022-09-30T10:58:47;97634.50;;;15.20;57.62
28267;BME280;15525;45.568;5.448;2022-09-30T11:01:23;97631.16;;;15.45;56.92
28267;BME280;15525;45.568;5.448;2022-09-30T11:06:26;97630.53;;;15.78;55.84
28267;BME280;15525;45.568;5.448;2022-09-30T11:09:00;97621.28;;;15.62;56.30
28267;BME280;15525;45.568;5.448;2022-09-30T11:11:33;97634.78;;;15.71;56.65
28267;BME280;15525;45.568;5.448;2022-09-30T11:19:27;97647.06;;;15.85;56.66
28267;BME280;15525;45.568;5.448;2022-09-30T11:24:44;97650.16;;;16.01;55.99
28267;BME280;15525;45.568;5.448;2022-09-30T11:35:28;97645.13;;;15.77;56.87
28267;BME280;15525;45.568;5.448;2022-09-30T11:41:11;97655.63;;;15.87;57.30
28267;BME280;15525;45.568;5.448;2022-09-30T11:51:57;97641.03;;;15.49;57.85
28267;BME280;15525;45.568;5.448;2022-09-30T12:00:08;97642.53;;;16.11;56.90
28267;BME280;15525;45.568;5.448;2022-09-30T12:02:52;97636.81;;;16.13;56.26
28267;BME280;15525;45.568;5.448;2022-09-30T12:05:26;97636.84;;;16.38;55.61
28267;BME280;15525;45.568;5.448;2022-09-30T12:08:10;97641.81;;;16.53;55.62
28267;BME280;15525;45.568;5.448;2022-09-30T12:10:45;97638.34;;;16.44;55.24
28267;BME280;15525;45.568;5.448;2022-09-30T12:13:37;97652.97;;;16.94;54.72
28267;BME280;15525;45.568;5.448;2022-09-30T12:16:09;97660.63;;;16.58;55.11
28267;BME280;15525;45.568;5.448;2022-09-30T12:18:41;97661.25;;;16.08;56.23
28267;BME280;15525;45.568;5.448;2022-09-30T12:21:16;97665.69;;;15.95;56.01
28267;BME280;15525;45.568;5.448;2022-09-30T12:23:48;97651.09;;;16.05;56.09
28267;BME280;15525;45.568;5.448;2022-09-30T12:26:15;97648.03;;;16.45;55.26
28267;BME280;15525;45.568;5.448;2022-09-30T12:28:50;97637.38;;;16.40;55.36
28267;BME280;15525;45.568;5.448;2022-09-30T12:41:00;97652.78;;;15.92;56.95
28267;BME280;15525;45.568;5.448;2022-09-30T12:46:17;97666.97;;;15.98;57.00
28267;BME280;15525;45.568;5.448;2022-09-30T12:48:58;97653.09;;;15.91;56.96
28267;BME280;15525;45.568;5.448;2022-09-30T12:51:30;97650.66;;;16.20;56.67
28267;BME280;15525;45.568;5.448;2022-09-30T12:56:42;97637.09;;;16.76;55.07
28267;BME280;15525;45.568;5.448;2022-09-30T12:59:09;97641.69;;;16.84;54.88
28267;BME280;15525;45.568;5.448;2022-09-30T13:01:36;97645.63;;;17.03;54.37
28267;BME280;15525;45.568;5.448;2022-09-30T13:19:46;97651.22;;;16.64;55.63
28267;BME280;15525;45.568;5.448;2022-09-30T13:27:43;97653.94;;;17.07;54.75
28267;BME280;15525;45.568;5.448;2022-09-30T13:32:39;97644.13;;;17.94;53.37
28267;BME280;15525;45.568;5.448;2022-09-30T13:40:56;97686.66;;;16.71;56.02
28267;BME280;15525;45.568;5.448;2022-09-30T13:45:57;97691.13;;;16.50;55.93
28267;BME280;15525;45.568;5.448;2022-09-30T13:48:33;97690.19;;;16.89;55.26
28267;BME280;15525;45.568;5.448;2022-09-30T13:51:05;97695.75;;;17.18;55.15
28267;BME280;15525;45.568;5.448;2022-09-30T13:53:47;97673.78;;;17.45;53.98
28267;BME280;15525;45.568;5.448;2022-09-30T13:56:24;97660.72;;;17.47;53.74
28267;BME280;15525;45.568;5.448;2022-09-30T14:04:45;97692.75;;;17.91;53.55
28267;BME280;15525;45.568;5.448;2022-09-30T14:07:36;97686.59;;;18.11;53.31
28267;BME280;15525;45.568;5.448;2022-09-30T14:18:10;97686.50;;;18.36;52.58
28267;BME280;15525;45.568;5.448;2022-09-30T14:23:26;97693.25;;;18.80;51.90
28267;BME280;15525;45.568;5.448;2022-09-30T14:28:39;97683.03;;;18.56;52.09
28267;BME280;15525;45.568;5.448;2022-09-30T14:31:12;97698.66;;;18.22;52.68
28267;BME280;15525;45.568;5.448;2022-09-30T14:33:40;97707.72;;;17.88;53.62
28267;BME280;15525;45.568;5.448;2022-09-30T14:36:15;97713.06;;;17.59;54.01
28267;BME280;15525;45.568;5.448;2022-09-30T14:38:46;97709.66;;;17.79;53.78
28267;BME280;15525;45.568;5.448;2022-09-30T14:41:20;97712.91;;;18.10;53.32
28267;BME280;15525;45.568;5.448;2022-09-30T14:43:49;97704.41;;;18.20;52.67
28267;BME280;15525;45.568;5.448;2022-09-30T14:48:43;97694.72;;;18.11;52.42
28267;BME280;15525;45.568;5.448;2022-09-30T14:51:12;97700.34;;;18.43;52.21
28267;BME280;15525;45.568;5.448;2022-09-30T14:53:40;97682.31;;;18.68;51.50
28267;BME280;15525;45.568;5.448;2022-09-30T14:56:24;97701.72;;;18.49;51.61
28267;BME280;15525;45.568;5.448;2022-09-30T14:58:51;97690.97;;;19.02;50.74
28267;BME280;15525;45.568;5.448;2022-09-30T15:01:18;97700.03;;;19.47;50.00
28267;BME280;15525;45.568;5.448;2022-09-30T15:04:13;97692.53;;;19.44;49.63
28267;BME280;15525;45.568;5.448;2022-09-30T15:06:44;97689.50;;;19.46;49.76
28267;BME280;15525;45.568;5.448;2022-09-30T15:11:41;97693.13;;;20.06;48.81
28267;BME280;15525;45.568;5.448;2022-09-30T15:14:13;97695.91;;;19.74;47.90
28267;BME280;15525;45.568;5.448;2022-09-30T15:19:17;97709.16;;;19.43;49.41
28267;BME280;15525;45.568;5.448;2022-09-30T15:21:43;97700.50;;;19.29;49.60
28267;BME280;15525;45.568;5.448;2022-09-30T15:24:10;97704.72;;;18.56;50.63
28267;BME280;15525;45.568;5.448;2022-09-30T15:26:36;97702.69;;;18.94;50.31
28267;BME280;15525;45.568;5.448;2022-09-30T15:29:03;97709.50;;;19.41;49.34
28267;BME280;15525;45.568;5.448;2022-09-30T15:31:30;97703.94;;;21.15;46.62
28267;BME280;15525;45.568;5.448;2022-09-30T15:34:11;97701.44;;;22.08;44.34
28267;BME280;15525;45.568;5.448;2022-09-30T15:36:37;97703.28;;;21.61;44.96
28267;BME280;15525;45.568;5.448;2022-09-30T15:39:04;97708.56;;;20.74;46.76
28267;BME280;15525;45.568;5.448;2022-09-30T15:41:38;97706.25;;;20.04;48.24
28267;BME280;15525;45.568;5.448;2022-09-30T15:44:14;97713.50;;;19.88;48.43
28267;BME280;15525;45.568;5.448;2022-09-30T15:46:59;97711.91;;;19.22;48.72
28267;BME280;15525;45.568;5.448;2022-09-30T15:49:46;97723.31;;;19.48;49.64
28267;BME280;15525;45.568;5.448;2022-09-30T15:52:25;97721.69;;;19.68;49.13
28267;BME280;15525;45.568;5.448;2022-09-30T15:54:52;97721.44;;;19.61;49.34
28267;BME280;15525;45.568;5.448;2022-09-30T15:57:46;97724.59;;;19.51;49.26
28267;BME280;15525;45.568;5.448;2022-09-30T16:00:38;97736.06;;;19.36;48.97
28267;BME280;15525;45.568;5.448;2022-09-30T16:05:45;97733.47;;;19.39;49.18
28267;BME280;15525;45.568;5.448;2022-09-30T16:08:27;97726.38;;;19.47;48.79
28267;BME280;15525;45.568;5.448;2022-09-30T16:10:55;97741.25;;;19.61;48.07
28267;BME280;15525;45.568;5.448;2022-09-30T16:13:25;97732.59;;;19.47;48.81
28267;BME280;15525;45.568;5.448;2022-09-30T16:15:53;97735.19;;;19.44;48.88
28267;BME280;15525;45.568;5.448;2022-09-30T16:18:23;97733.91;;;19.41;49.02
28267;BME280;15525;45.568;5.448;2022-09-30T16:21:03;97739.19;;;19.91;48.64
28267;BME280;15525;45.568;5.448;2022-09-30T16:23:34;97739.66;;;21.53;46.42
28267;BME280;15525;45.568;5.448;2022-09-30T16:26:21;97728.91;;;23.49;41.90
28267;BME280;15525;45.568;5.448;2022-09-30T16:28:51;97734.13;;;23.77;41.69
28267;BME280;15525;45.568;5.448;2022-09-30T16:31:17;97741.72;;;24.06;41.43
28267;BME280;15525;45.568;5.448;2022-09-30T16:33:43;97756.47;;;24.20;41.00
28267;BME280;15525;45.568;5.448;2022-09-30T16:36:09;97743.84;;;23.74;41.36
28267;BME280;15525;45.568;5.448;2022-09-30T16:38:37;97757.91;;;23.54;41.59
28267;BME280;15525;45.568;5.448;2022-09-30T16:41:03;97753.25;;;23.58;41.49